Nelspruit, South Africa

11:27 AM SAST on July 22, 2014 (GMT +0200)
IMPUMALA11 Elev 2552 ft | 25.49 °S, 30.99 °E | Change Station

Current weather conditions updated 1 second ago

Clear
Clear
63.7 °F
Feels Like 63.7 °F
N
0.0
Wind Variable Wind from SE
Gusts 3.4 mph

Today is forecast to be Warmer than yesterday.

Today
High -- | Low -- °F
--% Chance of Precip.
Yesterday
High -- | Low -- °F
Precip. -- in
6:39 AM 5:26 PM
Waning Crescent, 18% visible
Pressure 30.36 in
Visibility -9999.0 miles
Clouds
Dew Point 44 °F
Humidity 48%
Rainfall 0.00 in
Snow Depth Not available.
UV Not available.
Pollen Not available.
Air Quality Not available.
Flu Activity Not available.
METAR FAKN 220900Z 03002KT CAVOK 18/01 Q1028 NOSIG

More Conditions Fewer Conditions

Pressure 30.36 in
Visibility -9999.0 miles
Clouds
Dew Point 44 °F
Humidity 48%
Rainfall 0.00 in
Snow Depth Not available.
UV Not available.
Pollen Not available.
Air Quality Not available.
Flu Activity Not available.
METAR FAKN 220900Z 03002KT CAVOK 18/01 Q1028 NOSIG

More Conditions Fewer Conditions

10-Day Weather Forecast

LIGHTNING

Thunderstorms are forecast for your area. Cloud conditions might be right for producing strikes in the next few days, though lightning itself cannot be forecasted.

Lightning is a visible electrical discharge produced by a thunderstorm, based on the build up of oppositely charged particles within a cloud and from cloud to ground.

Know how to stay safe in a lightning storm.

Check out these Lightning WunderPhotos!

Almanac

Astronomy

Jul. 22, 2014 Rise Set
Actual Time 6:39 AM SAST 5:26 PM SAST
Civil Twilight 6:14 AM SAST 5:50 PM SAST
Nautical Twilight 5:46 AM SAST 6:18 PM SAST
Astronomical Twilight 5:19 AM SAST 6:46 PM SAST
Moon 2:44 AM SAST 1:54 PM SAST
Length of Visible Light 11h 35m
Length of Day
10h 46m
Tomorrow will be 0m 52s longer.
Waning Crescent, 18% of the Moon is Illuminated
Today
Waning Crescent
Jul 26
New
Aug 3
First Quarter
Aug 10
Full
Aug 17
Last Quarter

Yesterday's Extremes

Country Highs Country Lows

Community

WunderPhotos

Upload Photos

1,736,196 photos uploaded!

Nearby

Snow Depth

Not available.

Earthquake Activity

City Distance Mag. Time & Date
No recent earthquake activity has been reported nearby.
Minimum magnitude displayed is 2.5.

Coastal Water Temperatures

Place Temperature
No Stations Reporting

Nearby Weather Stations

Station Location Temp. Dew Point Humidity Wind Precip. Elev Updated Type
Nelspruit 63.7 °F 44 °F 48% SE  at  0.0 mph 0.00 in / hr 2552 ft 11:27 AM SAST Rapid Fire
Hilltop, Nelspruit 63.3 °F 42 °F 46% ENE  at  0.0 mph 0.00 in / hr 3805 ft 11:00 AM SAST Normal

Show More Stations Show Fewer Stations